sensor_id;sensor_type;location;lat;lon;timestamp;temperature;humidity
16038;DHT22;8123;50.906;6.172;2024-01-30T00:01:37;7.50;99.90
16038;DHT22;8123;50.906;6.172;2024-01-30T00:04:03;7.90;99.90
16038;DHT22;8123;50.906;6.172;2024-01-30T00:06:28;8.00;99.90
16038;DHT22;8123;50.906;6.172;2024-01-30T00:08:54;8.30;48.60
16038;DHT22;8123;50.906;6.172;2024-01-30T00:11:20;8.50;1.00
16038;DHT22;8123;50.906;6.172;2024-01-30T00:13:46;8.40;1.00
16038;DHT22;8123;50.906;6.172;2024-01-30T00:16:24;8.50;99.90
16038;DHT22;8123;50.906;6.172;2024-01-30T00:18:51;8.70;1.00
16038;DHT22;8123;50.906;6.172;2024-01-30T00:21:17;8.70;1.00
16038;DHT22;8123;50.906;6.172;2024-01-30T00:23:43;8.80;1.00
16038;DHT22;8123;50.906;6.172;2024-01-30T00:26:09;8.70;99.90
16038;DHT22;8123;50.906;6.172;2024-01-30T00:28:34;8.90;99.90
16038;DHT22;8123;50.906;6.172;2024-01-30T00:31:00;8.90;1.00
16038;DHT22;8123;50.906;6.172;2024-01-30T00:33:26;8.60;1.00
16038;DHT22;8123;50.906;6.172;2024-01-30T00:35:51;8.60;1.00
16038;DHT22;8123;50.906;6.172;2024-01-30T00:38:17;8.50;1.00
16038;DHT22;8123;50.906;6.172;2024-01-30T00:40:43;8.70;1.00
16038;DHT22;8123;50.906;6.172;2024-01-30T00:43:08;8.50;1.00
16038;DHT22;8123;50.906;6.172;2024-01-30T00:45:34;8.50;1.00
16038;DHT22;8123;50.906;6.172;2024-01-30T00:47:59;8.60;1.00
16038;DHT22;8123;50.906;6.172;2024-01-30T00:50:25;8.60;1.00
16038;DHT22;8123;50.906;6.172;2024-01-30T00:52:51;8.60;1.00
16038;DHT22;8123;50.906;6.172;2024-01-30T00:55:16;8.70;1.00
16038;DHT22;8123;50.906;6.172;2024-01-30T00:57:42;8.50;1.00
16038;DHT22;8123;50.906;6.172;2024-01-30T01:00:08;8.50;1.00
16038;DHT22;8123;50.906;6.172;2024-01-30T01:02:35;8.60;1.00
16038;DHT22;8123;50.906;6.172;2024-01-30T01:05:01;8.80;99.90
16038;DHT22;8123;50.906;6.172;2024-01-30T01:07:27;8.80;99.90
16038;DHT22;8123;50.906;6.172;2024-01-30T01:09:52;8.60;99.90
16038;DHT22;8123;50.906;6.172;2024-01-30T01:12:18;8.60;99.90
16038;DHT22;8123;50.906;6.172;2024-01-30T01:14:43;8.80;99.90
16038;DHT22;8123;50.906;6.172;2024-01-30T01:17:09;8.80;6.10
16038;DHT22;8123;50.906;6.172;2024-01-30T01:19:35;8.80;42.40
16038;DHT22;8123;50.906;6.172;2024-01-30T01:22:00;8.90;1.00
16038;DHT22;8123;50.906;6.172;2024-01-30T01:24:26;9.30;99.90
16038;DHT22;8123;50.906;6.172;2024-01-30T01:26:51;9.50;1.00
16038;DHT22;8123;50.906;6.172;2024-01-30T01:29:17;9.40;1.00
16038;DHT22;8123;50.906;6.172;2024-01-30T01:31:43;9.60;99.90
16038;DHT22;8123;50.906;6.172;2024-01-30T01:34:12;9.90;1.00
16038;DHT22;8123;50.906;6.172;2024-01-30T01:36:39;9.80;99.90
16038;DHT22;8123;50.906;6.172;2024-01-30T01:39:05;10.20;99.90
16038;DHT22;8123;50.906;6.172;2024-01-30T01:41:31;9.90;99.90
16038;DHT22;8123;50.906;6.172;2024-01-30T01:43:59;9.90;99.90
16038;DHT22;8123;50.906;6.172;2024-01-30T01:46:30;9.90;99.90
16038;DHT22;8123;50.906;6.172;2024-01-30T01:48:57;9.90;99.90
16038;DHT22;8123;50.906;6.172;2024-01-30T01:51:24;9.90;99.90
16038;DHT22;8123;50.906;6.172;2024-01-30T01:53:52;9.90;1.00
16038;DHT22;8123;50.906;6.172;2024-01-30T01:56:18;9.90;99.90
16038;DHT22;8123;50.906;6.172;2024-01-30T01:58:46;10.00;99.90
16038;DHT22;8123;50.906;6.172;2024-01-30T02:01:13;9.80;1.00
16038;DHT22;8123;50.906;6.172;2024-01-30T02:03:39;10.20;99.90
16038;DHT22;8123;50.906;6.172;2024-01-30T02:06:06;9.80;1.00
16038;DHT22;8123;50.906;6.172;2024-01-30T02:08:32;9.80;1.00
16038;DHT22;8123;50.906;6.172;2024-01-30T02:10:59;9.70;1.00
16038;DHT22;8123;50.906;6.172;2024-01-30T02:13:25;9.80;59.50
16038;DHT22;8123;50.906;6.172;2024-01-30T02:15:51;10.10;99.90
16038;DHT22;8123;50.906;6.172;2024-01-30T02:18:17;10.20;99.90
16038;DHT22;8123;50.906;6.172;2024-01-30T02:20:43;10.00;99.90
16038;DHT22;8123;50.906;6.172;2024-01-30T02:23:10;9.80;99.90
16038;DHT22;8123;50.906;6.172;2024-01-30T02:25:40;9.80;1.00
16038;DHT22;8123;50.906;6.172;2024-01-30T02:28:12;9.70;1.00
16038;DHT22;8123;50.906;6.172;2024-01-30T02:30:39;9.70;1.00
16038;DHT22;8123;50.906;6.172;2024-01-30T02:33:05;9.60;99.90
16038;DHT22;8123;50.906;6.172;2024-01-30T02:35:30;9.50;99.90
16038;DHT22;8123;50.906;6.172;2024-01-30T02:37:56;9.60;1.00
16038;DHT22;8123;50.906;6.172;2024-01-30T02:40:21;9.30;1.00
16038;DHT22;8123;50.906;6.172;2024-01-30T02:42:47;9.20;1.00
16038;DHT22;8123;50.906;6.172;2024-01-30T02:45:13;9.10;38.90
16038;DHT22;8123;50.906;6.172;2024-01-30T02:47:39;9.00;99.90
16038;DHT22;8123;50.906;6.172;2024-01-30T02:50:06;9.00;99.90
16038;DHT22;8123;50.906;6.172;2024-01-30T02:52:32;8.90;1.00
16038;DHT22;8123;50.906;6.172;2024-01-30T02:54:57;8.90;1.00
16038;DHT22;8123;50.906;6.172;2024-01-30T02:57:23;8.90;1.00
16038;DHT22;8123;50.906;6.172;2024-01-30T02:59:48;9.10;1.00
16038;DHT22;8123;50.906;6.172;2024-01-30T03:02:14;8.80;1.00
16038;DHT22;8123;50.906;6.172;2024-01-30T03:04:42;8.80;1.00
16038;DHT22;8123;50.906;6.172;2024-01-30T03:07:08;8.90;99.90
16038;DHT22;8123;50.906;6.172;2024-01-30T03:09:34;9.10;1.00
16038;DHT22;8123;50.906;6.172;2024-01-30T03:12:00;9.20;99.90
16038;DHT22;8123;50.906;6.172;2024-01-30T03:14:26;9.40;99.90
16038;DHT22;8123;50.906;6.172;2024-01-30T03:16:53;9.60;99.90
16038;DHT22;8123;50.906;6.172;2024-01-30T03:19:18;9.40;99.90
16038;DHT22;8123;50.906;6.172;2024-01-30T03:21:44;9.60;54.20
16038;DHT22;8123;50.906;6.172;2024-01-30T03:24:10;9.60;99.90
16038;DHT22;8123;50.906;6.172;2024-01-30T03:26:36;9.70;1.00
16038;DHT22;8123;50.906;6.172;2024-01-30T03:29:01;9.70;1.00
16038;DHT22;8123;50.906;6.172;2024-01-30T03:31:27;9.60;1.00
16038;DHT22;8123;50.906;6.172;2024-01-30T03:33:53;9.60;1.00
16038;DHT22;8123;50.906;6.172;2024-01-30T03:36:18;9.60;1.00
16038;DHT22;8123;50.906;6.172;2024-01-30T03:38:44;9.40;1.00
16038;DHT22;8123;50.906;6.172;2024-01-30T03:41:10;9.50;53.80
16038;DHT22;8123;50.906;6.172;2024-01-30T03:43:36;9.50;99.90
16038;DHT22;8123;50.906;6.172;2024-01-30T03:46:02;9.60;99.90
16038;DHT22;8123;50.906;6.172;2024-01-30T03:48:29;9.70;1.00
16038;DHT22;8123;50.906;6.172;2024-01-30T03:50:54;10.00;1.00
16038;DHT22;8123;50.906;6.172;2024-01-30T03:53:20;9.90;1.00
16038;DHT22;8123;50.906;6.172;2024-01-30T03:55:46;9.70;1.00
16038;DHT22;8123;50.906;6.172;2024-01-30T03:58:11;9.80;1.00
16038;DHT22;8123;50.906;6.172;2024-01-30T04:00:37;10.00;99.90
16038;DHT22;8123;50.906;6.172;2024-01-30T04:03:03;9.80;99.90
16038;DHT22;8123;50.906;6.172;2024-01-30T04:05:29;9.80;1.00
16038;DHT22;8123;50.906;6.172;2024-01-30T04:07:54;10.00;1.00
16038;DHT22;8123;50.906;6.172;2024-01-30T04:10:20;10.20;99.90
16038;DHT22;8123;50.906;6.172;2024-01-30T04:12:45;10.00;99.90
16038;DHT22;8123;50.906;6.172;2024-01-30T04:15:11;10.20;99.90
16038;DHT22;8123;50.906;6.172;2024-01-30T04:17:38;10.30;1.00
16038;DHT22;8123;50.906;6.172;2024-01-30T04:20:05;10.40;1.00
16038;DHT22;8123;50.906;6.172;2024-01-30T04:22:31;10.50;1.00
16038;DHT22;8123;50.906;6.172;2024-01-30T04:24:57;10.40;1.00
16038;DHT22;8123;50.906;6.172;2024-01-30T04:27:22;10.50;1.00
16038;DHT22;8123;50.906;6.172;2024-01-30T04:29:48;10.60;1.00
16038;DHT22;8123;50.906;6.172;2024-01-30T04:32:13;10.70;99.90
16038;DHT22;8123;50.906;6.172;2024-01-30T04:34:39;10.70;99.90
16038;DHT22;8123;50.906;6.172;2024-01-30T04:37:05;10.80;99.90
16038;DHT22;8123;50.906;6.172;2024-01-30T04:39:32;10.80;1.00
16038;DHT22;8123;50.906;6.172;2024-01-30T04:41:58;10.70;99.90
16038;DHT22;8123;50.906;6.172;2024-01-30T04:44:24;10.80;1.00
16038;DHT22;8123;50.906;6.172;2024-01-30T04:46:50;10.50;1.00
16038;DHT22;8123;50.906;6.172;2024-01-30T04:49:15;10.40;89.10
16038;DHT22;8123;50.906;6.172;2024-01-30T04:51:41;10.40;99.90
16038;DHT22;8123;50.906;6.172;2024-01-30T04:54:07;10.60;99.90
16038;DHT22;8123;50.906;6.172;2024-01-30T04:56:32;10.50;1.00
16038;DHT22;8123;50.906;6.172;2024-01-30T04:58:58;10.60;99.90
16038;DHT22;8123;50.906;6.172;2024-01-30T05:01:23;10.40;98.10
16038;DHT22;8123;50.906;6.172;2024-01-30T05:03:49;10.30;99.90
16038;DHT22;8123;50.906;6.172;2024-01-30T05:06:24;10.20;99.90
16038;DHT22;8123;50.906;6.172;2024-01-30T05:08:50;10.10;1.00
16038;DHT22;8123;50.906;6.172;2024-01-30T05:11:16;10.10;1.00
16038;DHT22;8123;50.906;6.172;2024-01-30T05:13:41;10.10;1.00
16038;DHT22;8123;50.906;6.172;2024-01-30T05:16:07;10.10;99.90
16038;DHT22;8123;50.906;6.172;2024-01-30T05:18:33;10.50;1.00
16038;DHT22;8123;50.906;6.172;2024-01-30T05:20:58;10.40;1.00
16038;DHT22;8123;50.906;6.172;2024-01-30T05:23:25;10.40;1.00
16038;DHT22;8123;50.906;6.172;2024-01-30T05:25:50;10.70;99.90
16038;DHT22;8123;50.906;6.172;2024-01-30T05:28:16;10.80;1.00
16038;DHT22;8123;50.906;6.172;2024-01-30T05:30:42;10.90;1.00
16038;DHT22;8123;50.906;6.172;2024-01-30T05:33:07;10.80;1.00
16038;DHT22;8123;50.906;6.172;2024-01-30T05:35:33;10.80;11.40
16038;DHT22;8123;50.906;6.172;2024-01-30T05:37:59;10.90;1.00
16038;DHT22;8123;50.906;6.172;2024-01-30T05:40:24;11.00;1.00
16038;DHT22;8123;50.906;6.172;2024-01-30T05:42:50;10.90;1.00
16038;DHT22;8123;50.906;6.172;2024-01-30T05:45:15;10.90;1.00
16038;DHT22;8123;50.906;6.172;2024-01-30T05:47:41;10.80;1.00
16038;DHT22;8123;50.906;6.172;2024-01-30T05:50:07;10.90;99.90
16038;DHT22;8123;50.906;6.172;2024-01-30T05:52:33;10.90;2.80
16038;DHT22;8123;50.906;6.172;2024-01-30T05:54:58;10.90;24.80
16038;DHT22;8123;50.906;6.172;2024-01-30T05:57:24;10.90;99.90
16038;DHT22;8123;50.906;6.172;2024-01-30T05:59:49;10.90;99.90
16038;DHT22;8123;50.906;6.172;2024-01-30T06:02:17;10.80;99.90
16038;DHT22;8123;50.906;6.172;2024-01-30T06:04:42;10.80;99.90
16038;DHT22;8123;50.906;6.172;2024-01-30T06:07:09;10.80;99.90
16038;DHT22;8123;50.906;6.172;2024-01-30T06:09:35;10.80;99.90
16038;DHT22;8123;50.906;6.172;2024-01-30T06:12:01;10.80;99.90
16038;DHT22;8123;50.906;6.172;2024-01-30T06:14:26;10.80;1.00
16038;DHT22;8123;50.906;6.172;2024-01-30T06:16:52;10.80;99.90
16038;DHT22;8123;50.906;6.172;2024-01-30T06:19:17;10.80;99.90
16038;DHT22;8123;50.906;6.172;2024-01-30T06:21:43;10.80;1.00
16038;DHT22;8123;50.906;6.172;2024-01-30T06:24:09;11.00;1.00
16038;DHT22;8123;50.906;6.172;2024-01-30T06:26:35;10.70;1.00
16038;DHT22;8123;50.906;6.172;2024-01-30T06:29:01;10.80;1.00
16038;DHT22;8123;50.906;6.172;2024-01-30T06:31:27;10.70;1.00
16038;DHT22;8123;50.906;6.172;2024-01-30T06:33:52;10.70;1.00
16038;DHT22;8123;50.906;6.172;2024-01-30T06:36:18;10.70;57.50
16038;DHT22;8123;50.906;6.172;2024-01-30T06:38:44;10.70;1.00
16038;DHT22;8123;50.906;6.172;2024-01-30T06:41:09;10.90;1.00
16038;DHT22;8123;50.906;6.172;2024-01-30T06:43:35;10.90;1.00
16038;DHT22;8123;50.906;6.172;2024-01-30T06:46:01;10.90;1.00
16038;DHT22;8123;50.906;6.172;2024-01-30T06:48:26;10.90;1.00
16038;DHT22;8123;50.906;6.172;2024-01-30T06:50:55;10.80;1.00
16038;DHT22;8123;50.906;6.172;2024-01-30T06:53:22;11.00;99.90
16038;DHT22;8123;50.906;6.172;2024-01-30T06:55:47;11.00;99.90
16038;DHT22;8123;50.906;6.172;2024-01-30T06:58:13;11.10;99.90
16038;DHT22;8123;50.906;6.172;2024-01-30T07:00:39;11.10;84.70
16038;DHT22;8123;50.906;6.172;2024-01-30T07:03:04;11.20;1.00
16038;DHT22;8123;50.906;6.172;2024-01-30T07:05:30;11.20;1.00
16038;DHT22;8123;50.906;6.172;2024-01-30T07:07:55;11.20;1.00
16038;DHT22;8123;50.906;6.172;2024-01-30T07:10:21;11.20;1.00
16038;DHT22;8123;50.906;6.172;2024-01-30T07:12:47;11.30;99.90
16038;DHT22;8123;50.906;6.172;2024-01-30T07:15:12;11.30;99.90
16038;DHT22;8123;50.906;6.172;2024-01-30T07:17:41;11.30;99.90
16038;DHT22;8123;50.906;6.172;2024-01-30T07:20:07;11.30;99.90
16038;DHT22;8123;50.906;6.172;2024-01-30T07:22:34;11.30;99.90
16038;DHT22;8123;50.906;6.172;2024-01-30T07:25:00;11.20;1.00
16038;DHT22;8123;50.906;6.172;2024-01-30T07:27:26;11.20;99.90
16038;DHT22;8123;50.906;6.172;2024-01-30T07:29:51;11.30;99.90
16038;DHT22;8123;50.906;6.172;2024-01-30T07:32:17;11.20;1.00
16038;DHT22;8123;50.906;6.172;2024-01-30T07:34:44;11.20;99.90
16038;DHT22;8123;50.906;6.172;2024-01-30T07:37:09;11.30;99.90
16038;DHT22;8123;50.906;6.172;2024-01-30T07:39:36;11.30;49.80
16038;DHT22;8123;50.906;6.172;2024-01-30T07:42:02;11.30;99.90
16038;DHT22;8123;50.906;6.172;2024-01-30T07:44:28;11.40;99.90
16038;DHT22;8123;50.906;6.172;2024-01-30T07:46:53;11.30;99.90
16038;DHT22;8123;50.906;6.172;2024-01-30T07:49:20;11.40;99.90
16038;DHT22;8123;50.906;6.172;2024-01-30T07:51:45;11.40;99.90
16038;DHT22;8123;50.906;6.172;2024-01-30T07:54:11;11.40;88.30
16038;DHT22;8123;50.906;6.172;2024-01-30T07:56:37;11.30;75.40
16038;DHT22;8123;50.906;6.172;2024-01-30T07:59:03;11.40;72.80
16038;DHT22;8123;50.906;6.172;2024-01-30T08:01:28;11.50;1.00
16038;DHT22;8123;50.906;6.172;2024-01-30T08:03:54;11.50;1.00
16038;DHT22;8123;50.906;6.172;2024-01-30T08:06:19;11.50;1.00
16038;DHT22;8123;50.906;6.172;2024-01-30T08:08:45;11.50;1.00
16038;DHT22;8123;50.906;6.172;2024-01-30T08:11:11;11.50;1.00
16038;DHT22;8123;50.906;6.172;2024-01-30T08:13:37;11.50;1.00
16038;DHT22;8123;50.906;6.172;2024-01-30T08:16:03;11.50;1.00
16038;DHT22;8123;50.906;6.172;2024-01-30T08:18:29;11.50;1.00
16038;DHT22;8123;50.906;6.172;2024-01-30T08:20:55;11.50;1.00
16038;DHT22;8123;50.906;6.172;2024-01-30T08:23:20;11.50;1.00
16038;DHT22;8123;50.906;6.172;2024-01-30T08:25:46;11.50;1.00
16038;DHT22;8123;50.906;6.172;2024-01-30T08:28:12;11.40;1.00
16038;DHT22;8123;50.906;6.172;2024-01-30T08:30:37;11.40;1.00
16038;DHT22;8123;50.906;6.172;2024-01-30T08:33:04;11.30;1.00
16038;DHT22;8123;50.906;6.172;2024-01-30T08:35:30;11.30;1.00
16038;DHT22;8123;50.906;6.172;2024-01-30T08:37:59;11.40;1.00
16038;DHT22;8123;50.906;6.172;2024-01-30T08:40:24;11.50;1.00
16038;DHT22;8123;50.906;6.172;2024-01-30T08:42:50;11.50;99.90
16038;DHT22;8123;50.906;6.172;2024-01-30T08:45:15;11.60;99.90
16038;DHT22;8123;50.906;6.172;2024-01-30T08:47:41;11.60;99.90
16038;DHT22;8123;50.906;6.172;2024-01-30T08:50:07;11.60;99.90
16038;DHT22;8123;50.906;6.172;2024-01-30T08:52:33;11.50;1.00
16038;DHT22;8123;50.906;6.172;2024-01-30T08:54:59;11.50;1.00
16038;DHT22;8123;50.906;6.172;2024-01-30T08:57:25;11.40;1.00
16038;DHT22;8123;50.906;6.172;2024-01-30T08:59:54;11.50;1.00
16038;DHT22;8123;50.906;6.172;2024-01-30T09:02:20;11.40;1.00
16038;DHT22;8123;50.906;6.172;2024-01-30T09:04:46;11.40;1.00
16038;DHT22;8123;50.906;6.172;2024-01-30T09:07:12;11.40;1.00
16038;DHT22;8123;50.906;6.172;2024-01-30T09:09:39;11.50;1.00
16038;DHT22;8123;50.906;6.172;2024-01-30T09:12:08;11.50;1.00
16038;DHT22;8123;50.906;6.172;2024-01-30T09:14:37;11.50;1.00
16038;DHT22;8123;50.906;6.172;2024-01-30T09:17:03;11.60;1.00
16038;DHT22;8123;50.906;6.172;2024-01-30T09:19:29;11.70;1.00
16038;DHT22;8123;50.906;6.172;2024-01-30T09:21:55;11.70;1.00
16038;DHT22;8123;50.906;6.172;2024-01-30T09:24:20;11.70;1.00
16038;DHT22;8123;50.906;6.172;2024-01-30T09:26:46;11.70;1.00
16038;DHT22;8123;50.906;6.172;2024-01-30T09:29:12;11.80;1.00
16038;DHT22;8123;50.906;6.172;2024-01-30T09:31:37;11.90;1.00
16038;DHT22;8123;50.906;6.172;2024-01-30T09:34:03;11.90;1.00
16038;DHT22;8123;50.906;6.172;2024-01-30T09:36:28;12.00;1.00
16038;DHT22;8123;50.906;6.172;2024-01-30T09:38:54;12.00;1.00
16038;DHT22;8123;50.906;6.172;2024-01-30T09:41:20;12.00;1.00
16038;DHT22;8123;50.906;6.172;2024-01-30T09:43:48;12.00;1.00
16038;DHT22;8123;50.906;6.172;2024-01-30T09:46:16;12.00;1.00
16038;DHT22;8123;50.906;6.172;2024-01-30T09:48:43;12.00;1.00
16038;DHT22;8123;50.906;6.172;2024-01-30T09:51:14;12.00;1.00
16038;DHT22;8123;50.906;6.172;2024-01-30T09:53:41;12.00;1.00
16038;DHT22;8123;50.906;6.172;2024-01-30T09:56:07;12.00;1.00
16038;DHT22;8123;50.906;6.172;2024-01-30T09:58:33;12.20;1.00
16038;DHT22;8123;50.906;6.172;2024-01-30T10:00:58;12.10;1.00
16038;DHT22;8123;50.906;6.172;2024-01-30T10:03:24;12.20;1.00
16038;DHT22;8123;50.906;6.172;2024-01-30T10:05:51;12.20;1.00
16038;DHT22;8123;50.906;6.172;2024-01-30T10:08:20;12.20;1.00
16038;DHT22;8123;50.906;6.172;2024-01-30T10:10:47;12.20;1.00
16038;DHT22;8123;50.906;6.172;2024-01-30T10:13:13;12.20;1.00
16038;DHT22;8123;50.906;6.172;2024-01-30T10:15:39;12.20;1.00
16038;DHT22;8123;50.906;6.172;2024-01-30T10:18:06;12.30;1.00
16038;DHT22;8123;50.906;6.172;2024-01-30T10:20:32;12.20;1.00
16038;DHT22;8123;50.906;6.172;2024-01-30T10:22:58;12.20;1.00
16038;DHT22;8123;50.906;6.172;2024-01-30T10:25:25;12.20;1.00
16038;DHT22;8123;50.906;6.172;2024-01-30T10:27:54;12.20;1.00
16038;DHT22;8123;50.906;6.172;2024-01-30T10:30:23;12.20;1.00
16038;DHT22;8123;50.906;6.172;2024-01-30T10:32:49;12.20;1.00
16038;DHT22;8123;50.906;6.172;2024-01-30T10:35:15;12.20;1.00
16038;DHT22;8123;50.906;6.172;2024-01-30T10:37:43;12.20;1.00
16038;DHT22;8123;50.906;6.172;2024-01-30T10:40:13;12.30;1.00
16038;DHT22;8123;50.906;6.172;2024-01-30T10:42:43;12.40;1.00
16038;DHT22;8123;50.906;6.172;2024-01-30T10:45:12;12.30;7.40
16038;DHT22;8123;50.906;6.172;2024-01-30T10:47:40;12.30;1.00
16038;DHT22;8123;50.906;6.172;2024-01-30T10:50:08;12.40;1.00
16038;DHT22;8123;50.906;6.172;2024-01-30T10:52:34;12.40;1.00
16038;DHT22;8123;50.906;6.172;2024-01-30T10:55:00;12.40;99.90
16038;DHT22;8123;50.906;6.172;2024-01-30T10:57:27;12.40;99.90
16038;DHT22;8123;50.906;6.172;2024-01-30T10:59:58;12.40;1.00
16038;DHT22;8123;50.906;6.172;2024-01-30T11:02:25;12.50;1.00
16038;DHT22;8123;50.906;6.172;2024-01-30T11:04:57;12.60;1.00
16038;DHT22;8123;50.906;6.172;2024-01-30T11:07:27;12.60;1.00
16038;DHT22;8123;50.906;6.172;2024-01-30T11:10:03;12.60;99.90
16038;DHT22;8123;50.906;6.172;2024-01-30T11:12:30;12.60;99.90
16038;DHT22;8123;50.906;6.172;2024-01-30T11:20:22;12.50;1.00
16038;DHT22;8123;50.906;6.172;2024-01-30T11:22:50;12.40;1.00
16038;DHT22;8123;50.906;6.172;2024-01-30T11:25:19;12.40;2.60
16038;DHT22;8123;50.906;6.172;2024-01-30T11:27:46;12.30;99.20
16038;DHT22;8123;50.906;6.172;2024-01-30T11:35:31;12.30;1.00
16038;DHT22;8123;50.906;6.172;2024-01-30T11:37:58;12.30;1.00
16038;DHT22;8123;50.906;6.172;2024-01-30T11:40:24;12.30;99.90
16038;DHT22;8123;50.906;6.172;2024-01-30T11:42:51;12.30;44.60
16038;DHT22;8123;50.906;6.172;2024-01-30T11:45:17;12.20;99.90
16038;DHT22;8123;50.906;6.172;2024-01-30T11:47:43;12.20;99.10
16038;DHT22;8123;50.906;6.172;2024-01-30T11:50:09;12.20;99.90
16038;DHT22;8123;50.906;6.172;2024-01-30T11:52:36;12.10;99.90
16038;DHT22;8123;50.906;6.172;2024-01-30T11:55:02;12.10;99.90
16038;DHT22;8123;50.906;6.172;2024-01-30T11:57:28;12.10;99.90
16038;DHT22;8123;50.906;6.172;2024-01-30T11:59:54;12.10;99.90
16038;DHT22;8123;50.906;6.172;2024-01-30T12:02:19;12.10;99.90
16038;DHT22;8123;50.906;6.172;2024-01-30T12:04:45;12.10;1.00
16038;DHT22;8123;50.906;6.172;2024-01-30T12:07:11;12.20;99.90
16038;DHT22;8123;50.906;6.172;2024-01-30T12:09:38;12.10;99.90
16038;DHT22;8123;50.906;6.172;2024-01-30T12:12:03;12.20;99.90
16038;DHT22;8123;50.906;6.172;2024-01-30T12:14:31;12.30;99.90
16038;DHT22;8123;50.906;6.172;2024-01-30T12:16:57;12.30;99.90
16038;DHT22;8123;50.906;6.172;2024-01-30T12:19:26;12.20;99.90
16038;DHT22;8123;50.906;6.172;2024-01-30T12:21:56;12.20;99.90
16038;DHT22;8123;50.906;6.172;2024-01-30T12:24:24;12.20;99.90
16038;DHT22;8123;50.906;6.172;2024-01-30T12:26:50;12.20;99.90
16038;DHT22;8123;50.906;6.172;2024-01-30T12:29:17;12.20;99.90
16038;DHT22;8123;50.906;6.172;2024-01-30T12:31:42;12.20;99.90
16038;DHT22;8123;50.906;6.172;2024-01-30T12:34:09;12.20;99.90
16038;DHT22;8123;50.906;6.172;2024-01-30T12:36:35;12.20;99.90
16038;DHT22;8123;50.906;6.172;2024-01-30T12:39:01;12.20;99.90
16038;DHT22;8123;50.906;6.172;2024-01-30T12:41:27;12.10;1.00
16038;DHT22;8123;50.906;6.172;2024-01-30T12:43:57;12.10;1.00
16038;DHT22;8123;50.906;6.172;2024-01-30T12:46:28;12.00;1.00
16038;DHT22;8123;50.906;6.172;2024-01-30T12:48:54;12.00;1.00
16038;DHT22;8123;50.906;6.172;2024-01-30T12:51:20;12.00;1.00
16038;DHT22;8123;50.906;6.172;2024-01-30T12:53:45;12.00;1.00
16038;DHT22;8123;50.906;6.172;2024-01-30T12:56:13;11.90;1.00
16038;DHT22;8123;50.906;6.172;2024-01-30T12:58:40;11.80;75.40
16038;DHT22;8123;50.906;6.172;2024-01-30T13:01:08;11.80;20.10
16038;DHT22;8123;50.906;6.172;2024-01-30T13:03:34;11.80;99.90
16038;DHT22;8123;50.906;6.172;2024-01-30T13:06:00;11.80;99.90
16038;DHT22;8123;50.906;6.172;2024-01-30T13:08:25;12.10;99.90
16038;DHT22;8123;50.906;6.172;2024-01-30T13:10:51;11.80;99.90
16038;DHT22;8123;50.906;6.172;2024-01-30T13:13:17;11.80;99.90
16038;DHT22;8123;50.906;6.172;2024-01-30T13:15:42;11.80;99.90
16038;DHT22;8123;50.906;6.172;2024-01-30T13:18:08;11.70;99.90
16038;DHT22;8123;50.906;6.172;2024-01-30T13:20:34;11.80;99.90
16038;DHT22;8123;50.906;6.172;2024-01-30T13:22:59;11.80;99.90
16038;DHT22;8123;50.906;6.172;2024-01-30T13:25:25;11.80;99.90
16038;DHT22;8123;50.906;6.172;2024-01-30T13:27:51;11.80;99.90
16038;DHT22;8123;50.906;6.172;2024-01-30T13:30:17;11.80;99.90
16038;DHT22;8123;50.906;6.172;2024-01-30T13:32:42;11.80;1.00
16038;DHT22;8123;50.906;6.172;2024-01-30T13:35:09;11.80;99.90
16038;DHT22;8123;50.906;6.172;2024-01-30T13:37:35;11.80;99.90
16038;DHT22;8123;50.906;6.172;2024-01-30T13:40:05;11.80;1.00
16038;DHT22;8123;50.906;6.172;2024-01-30T13:42:34;11.70;1.00
16038;DHT22;8123;50.906;6.172;2024-01-30T13:45:00;12.00;1.00
16038;DHT22;8123;50.906;6.172;2024-01-30T13:47:26;11.70;1.00
16038;DHT22;8123;50.906;6.172;2024-01-30T13:49:51;11.60;1.00
16038;DHT22;8123;50.906;6.172;2024-01-30T13:52:18;11.60;99.90
16038;DHT22;8123;50.906;6.172;2024-01-30T13:54:44;11.70;89.00
16038;DHT22;8123;50.906;6.172;2024-01-30T13:57:09;11.60;20.70
16038;DHT22;8123;50.906;6.172;2024-01-30T13:59:37;11.70;81.10
16038;DHT22;8123;50.906;6.172;2024-01-30T14:02:03;11.60;1.00
16038;DHT22;8123;50.906;6.172;2024-01-30T14:04:28;11.60;1.00
16038;DHT22;8123;50.906;6.172;2024-01-30T14:06:54;11.60;5.50
16038;DHT22;8123;50.906;6.172;2024-01-30T14:09:20;11.60;1.00
16038;DHT22;8123;50.906;6.172;2024-01-30T14:11:46;11.60;21.70
16038;DHT22;8123;50.906;6.172;2024-01-30T14:14:12;11.60;33.90
16038;DHT22;8123;50.906;6.172;2024-01-30T14:16:37;11.60;99.90
16038;DHT22;8123;50.906;6.172;2024-01-30T14:19:03;11.60;52.70
16038;DHT22;8123;50.906;6.172;2024-01-30T14:21:29;11.60;12.30
16038;DHT22;8123;50.906;6.172;2024-01-30T14:23:54;11.60;99.90
16038;DHT22;8123;50.906;6.172;2024-01-30T14:26:20;11.60;99.90
16038;DHT22;8123;50.906;6.172;2024-01-30T14:28:46;11.40;1.00
16038;DHT22;8123;50.906;6.172;2024-01-30T14:31:12;11.40;1.00
16038;DHT22;8123;50.906;6.172;2024-01-30T14:33:38;11.40;1.00
16038;DHT22;8123;50.906;6.172;2024-01-30T14:36:03;11.30;1.00
16038;DHT22;8123;50.906;6.172;2024-01-30T14:38:29;11.30;1.00
16038;DHT22;8123;50.906;6.172;2024-01-30T14:40:55;11.20;1.00
16038;DHT22;8123;50.906;6.172;2024-01-30T14:43:20;11.20;1.00
16038;DHT22;8123;50.906;6.172;2024-01-30T14:45:46;11.10;99.90
16038;DHT22;8123;50.906;6.172;2024-01-30T14:48:15;11.20;1.00
16038;DHT22;8123;50.906;6.172;2024-01-30T14:50:40;11.10;1.00
16038;DHT22;8123;50.906;6.172;2024-01-30T14:53:06;11.10;1.00
16038;DHT22;8123;50.906;6.172;2024-01-30T14:55:32;11.10;1.00
16038;DHT22;8123;50.906;6.172;2024-01-30T14:57:57;11.10;1.00
16038;DHT22;8123;50.906;6.172;2024-01-30T15:00:24;11.10;1.00
16038;DHT22;8123;50.906;6.172;2024-01-30T15:02:50;11.00;99.90
16038;DHT22;8123;50.906;6.172;2024-01-30T15:05:16;10.90;1.00
16038;DHT22;8123;50.906;6.172;2024-01-30T15:07:42;10.90;99.90
16038;DHT22;8123;50.906;6.172;2024-01-30T15:10:08;10.80;1.00
16038;DHT22;8123;50.906;6.172;2024-01-30T15:12:35;10.80;99.90
16038;DHT22;8123;50.906;6.172;2024-01-30T15:15:01;10.80;99.90
16038;DHT22;8123;50.906;6.172;2024-01-30T15:17:27;10.80;99.90
16038;DHT22;8123;50.906;6.172;2024-01-30T15:19:52;10.80;99.90
16038;DHT22;8123;50.906;6.172;2024-01-30T15:22:18;10.80;99.90
16038;DHT22;8123;50.906;6.172;2024-01-30T15:24:44;10.80;99.90
16038;DHT22;8123;50.906;6.172;2024-01-30T15:27:09;10.70;99.90
16038;DHT22;8123;50.906;6.172;2024-01-30T15:29:35;10.60;99.90
16038;DHT22;8123;50.906;6.172;2024-01-30T15:32:00;10.70;1.00
16038;DHT22;8123;50.906;6.172;2024-01-30T15:34:26;10.90;99.90
16038;DHT22;8123;50.906;6.172;2024-01-30T15:36:52;10.60;1.00
16038;DHT22;8123;50.906;6.172;2024-01-30T15:39:17;10.60;99.90
16038;DHT22;8123;50.906;6.172;2024-01-30T15:41:43;10.50;99.90
16038;DHT22;8123;50.906;6.172;2024-01-30T15:44:09;10.60;99.90
16038;DHT22;8123;50.906;6.172;2024-01-30T15:46:35;10.50;99.90
16038;DHT22;8123;50.906;6.172;2024-01-30T15:49:01;10.50;1.00
16038;DHT22;8123;50.906;6.172;2024-01-30T15:51:29;10.50;99.90
16038;DHT22;8123;50.906;6.172;2024-01-30T15:53:55;10.50;99.90
16038;DHT22;8123;50.906;6.172;2024-01-30T15:56:21;10.50;99.90
16038;DHT22;8123;50.906;6.172;2024-01-30T15:58:47;10.40;99.90
16038;DHT22;8123;50.906;6.172;2024-01-30T16:01:15;10.40;99.90